Terminal Aerodrome Forecast
Issued by NWS Cleveland, OH

Home | Current Version | Previous Version | Graphics & Text | Print | Product List | Glossary On
Versions: 1 2 3 4 5 6 7 8 9 10 11 12 13 14 15 16 17 18 19 20 21 22 23 24 25 26
058
FTUS41 KCLE 261738
TAFMFD
TAF
KMFD 261738Z 2618/2718 26006KT P6SM SCT015 OVC025
     FM270000 13004KT P6SM BKN035
     FM270400 13007KT 6SM -SHRA VCTS SCT015CB OVC035
     FM271200 18006KT 3SM BR OVC008
     FM271600 36008KT P6SM OVC015=

USA.gov is the U.S. government's official web portal to all federal, state and local government web resources and services.